createdAt,value
2023-04-25T00:00:15.880Z,91.56
2023-04-25T00:01:16.847Z,91.56
2023-04-25T00:02:17.163Z,91.46
2023-04-25T00:03:17.888Z,91.17
2023-04-25T00:04:19.159Z,91.37
2023-04-25T00:05:19.568Z,90.61
2023-04-25T00:06:19.644Z,90.51
2023-04-25T00:07:20.359Z,90.22
2023-04-25T00:08:20.703Z,90.32
2023-04-25T00:09:21.488Z,90.89
2023-04-25T00:10:22.417Z,91.46
2023-04-25T00:11:23.011Z,91.94
2023-04-25T00:12:23.958Z,91.75
2023-04-25T00:13:24.345Z,91.17
2023-04-25T00:14:25.093Z,91.27
2023-04-25T00:15:25.609Z,90.89
2023-04-25T00:16:26.621Z,90.03
2023-04-25T00:17:26.755Z,89.94
2023-04-25T00:18:26.647Z,90.13
2023-04-25T00:19:26.948Z,90.13
2023-04-25T00:20:26.852Z,90.13
2023-04-25T00:21:28.015Z,90.61
2023-04-25T00:22:28.697Z,89.56
2023-04-25T00:23:28.920Z,89.47
2023-04-25T00:24:29.630Z,89.37
2023-04-25T00:25:29.908Z,89.47
2023-04-25T00:26:30.401Z,88.23
2023-04-25T00:27:30.887Z,88.04
2023-04-25T00:28:31.579Z,88.23
2023-04-25T00:29:32.124Z,88.23
2023-04-25T00:30:32.921Z,88.51
2023-04-25T00:31:33.961Z,89.18
2023-04-25T00:32:34.723Z,89.08
2023-04-25T00:33:34.841Z,88.99
2023-04-25T00:34:35.353Z,89.27
2023-04-25T00:35:36.278Z,87.85
2023-04-25T00:36:37.113Z,87.75
2023-04-25T00:37:37.644Z,87.65
2023-04-25T00:38:37.959Z,87.18
2023-04-25T00:39:38.482Z,87.08
2023-04-25T00:40:39.193Z,86.8
2023-04-25T00:41:39.489Z,86.8
2023-04-25T00:42:40.391Z,85.66
2023-04-25T00:43:40.392Z,85.28
2023-04-25T00:44:41.508Z,84.23
2023-04-25T00:45:42.195Z,84.42
2023-04-25T00:46:43.004Z,84.42
2023-04-25T00:47:43.203Z,84.23
2023-04-25T00:48:43.394Z,84.42
2023-04-25T00:49:44.314Z,84.33
2023-04-25T00:50:45.022Z,84.61
2023-04-25T00:51:45.757Z,83.37
2023-04-25T00:52:46.456Z,82.9
2023-04-25T00:53:47.035Z,82.51
2023-04-25T00:54:47.345Z,82.8
2023-04-25T00:55:48.019Z,83.09
2023-04-25T00:56:48.733Z,83.47
2023-04-25T00:57:49.439Z,83.28
2023-04-25T00:58:49.948Z,83.37
2023-04-25T00:59:49.898Z,83.18
2023-04-25T01:00:50.793Z,83.56
2023-04-25T01:01:51.216Z,83.56
2023-04-25T01:02:52.334Z,83.56
2023-04-25T01:03:52.720Z,84.04
2023-04-25T01:04:53.530Z,84.42
2023-04-25T01:05:54.088Z,84.52
2023-04-25T01:06:54.037Z,84.33
2023-04-25T01:07:54.729Z,85.08
2023-04-25T01:08:54.617Z,85.28
2023-04-25T01:09:55.340Z,85.37
2023-04-25T01:10:56.409Z,85.47
2023-04-25T01:11:56.692Z,85.94
2023-04-25T01:12:57.009Z,85.66
2023-04-25T01:13:58.050Z,86.51
2023-04-25T01:14:58.772Z,86.7
2023-04-25T01:15:59.458Z,87.27
2023-04-25T01:17:00.380Z,87.56
2023-04-25T01:18:00.966Z,87.94
2023-04-25T01:19:00.790Z,87.75
2023-04-25T01:20:01.936Z,87.85
2023-04-25T01:21:02.282Z,88.23
2023-04-25T01:22:03.263Z,88.42
2023-04-25T01:23:04.051Z,88.32
2023-04-25T01:24:04.132Z,88.42
2023-04-25T01:25:05.065Z,88.7
2023-04-25T01:26:05.805Z,88.89
2023-04-25T01:27:06.121Z,88.51
2023-04-25T01:28:06.422Z,89.27
2023-04-25T01:29:06.709Z,88.99
2023-04-25T01:30:07.236Z,89.08
2023-04-25T01:31:08.002Z,89.08
2023-04-25T01:32:08.884Z,89.56
2023-04-25T01:33:09.249Z,89.94
2023-04-25T01:35:09.821Z,89.37
2023-04-25T01:36:10.834Z,89.56
2023-04-25T01:37:11.380Z,89.65
2023-04-25T01:38:12.668Z,89.65
2023-04-25T01:39:13.157Z,88.99
2023-04-25T01:40:13.747Z,89.27
2023-04-25T01:41:14.855Z,88.6
2023-04-25T01:42:15.157Z,88.7
2023-04-25T01:43:15.715Z,89.08
2023-04-25T01:44:15.873Z,88.99
2023-04-25T01:45:16.598Z,88.6
2023-04-25T01:46:17.147Z,88.79
2023-04-25T01:47:18.367Z,88.79
2023-04-25T01:48:19.181Z,88.7
2023-04-25T01:49:19.985Z,88.99
2023-04-25T01:50:20.489Z,89.75
2023-04-25T01:51:21.192Z,89.7
2023-04-25T01:52:22.196Z,89.23
2023-04-25T01:53:22.732Z,88.6
2023-04-25T01:54:22.902Z,87.8
2023-04-25T01:55:23.416Z,87.42
2023-04-25T01:56:24.619Z,87.9
2023-04-25T01:57:25.363Z,88.18
2023-04-25T01:58:25.870Z,88.37
2023-04-25T01:59:26.601Z,88.56
2023-04-25T02:00:27.325Z,88.94
2023-04-25T02:01:28.098Z,89.23
2023-04-25T02:02:29.080Z,88.09
2023-04-25T02:03:29.721Z,87.32
2023-04-25T02:05:30.036Z,87.23
2023-04-25T02:06:30.768Z,86.94
2023-04-25T02:07:31.549Z,86.57
2023-04-25T02:08:32.605Z,86.99
2023-04-25T02:09:32.681Z,86.85
2023-04-25T02:10:33.486Z,86.99
2023-04-25T02:11:34.186Z,87.18
2023-04-25T02:12:34.670Z,87.56
2023-04-25T02:13:35.357Z,88.09
2023-04-25T02:14:35.554Z,88.04
2023-04-25T02:15:36.373Z,87.85
2023-04-25T02:16:36.344Z,88.23
2023-04-25T02:17:36.565Z,88.56
2023-04-25T02:18:36.957Z,89.47
2023-04-25T02:19:37.448Z,88.79
2023-04-25T02:20:37.951Z,89.84
2023-04-25T02:21:38.872Z,90.8
2023-04-25T02:22:39.587Z,90.51
2023-04-25T02:23:39.890Z,91.32
2023-04-25T02:24:40.622Z,91.46
2023-04-25T02:25:41.385Z,91.8
2023-04-25T02:26:41.897Z,91.8
2023-04-25T02:27:42.373Z,92.27
2023-04-25T02:28:43.293Z,92.56
2023-04-25T02:29:43.978Z,93.04
2023-04-25T02:30:44.781Z,93.7
2023-04-25T02:31:45.877Z,94.08
2023-04-25T02:32:46.053Z,93.89
2023-04-25T02:33:46.971Z,94.08
2023-04-25T02:35:47.679Z,94.65
2023-04-25T02:36:47.938Z,94.74
2023-04-25T02:37:48.670Z,94.84
2023-04-25T02:38:49.406Z,94.93
2023-04-25T02:39:50.171Z,95.03
2023-04-25T02:40:51.132Z,94.65
2023-04-25T02:41:51.822Z,95.12
2023-04-25T02:42:52.169Z,95.12
2023-04-25T02:43:53.010Z,95.51
2023-04-25T02:44:53.321Z,96.17
2023-04-25T02:45:53.617Z,96.65
2023-04-25T02:46:54.221Z,95.22
2023-04-25T02:47:55.074Z,94.74
2023-04-25T02:48:55.155Z,94.56
2023-04-25T02:49:55.839Z,94.74
2023-04-25T02:50:56.360Z,95.6
2023-04-25T02:51:56.675Z,95.7
2023-04-25T02:52:57.486Z,96.08
2023-04-25T02:53:58.453Z,96.17
2023-04-25T02:54:58.640Z,97.13
2023-04-25T02:55:59.178Z,97.22
2023-04-25T02:56:59.898Z,97.79
2023-04-25T02:58:00.809Z,97.31
2023-04-25T02:59:01.390Z,97.5
2023-04-25T03:00:01.913Z,98.08
2023-04-25T03:01:02.695Z,98.83
2023-04-25T03:02:03.542Z,99.12
2023-04-25T03:03:04.353Z,99.79
2023-04-25T03:04:04.344Z,99.99
2023-04-25T03:05:04.952Z,99.99
2023-04-25T03:06:05.678Z,99.99
2023-04-25T03:07:06.366Z,99.99
2023-04-25T03:08:06.321Z,99.99
2023-04-25T03:09:06.430Z,99.99
2023-04-25T03:10:06.730Z,99.99
2023-04-25T03:11:07.492Z,99.99
2023-04-25T03:12:08.431Z,99.99
2023-04-25T03:13:08.930Z,99.99
2023-04-25T03:14:09.453Z,99.99
2023-04-25T03:15:09.928Z,99.99
2023-04-25T03:16:10.552Z,99.99
2023-04-25T03:17:11.425Z,99.99
2023-04-25T03:18:12.007Z,99.99
2023-04-25T03:19:12.516Z,99.99
2023-04-25T03:20:13.399Z,99.99
2023-04-25T03:21:13.910Z,99.99
2023-04-25T03:22:14.445Z,99.99
2023-04-25T03:23:15.482Z,99.99
2023-04-25T03:24:16.213Z,99.99
2023-04-25T03:25:16.402Z,99.99
2023-04-25T03:26:16.942Z,99.99
2023-04-25T03:27:17.665Z,99.99
2023-04-25T03:28:18.381Z,99.99
2023-04-25T03:29:19.296Z,99.99
2023-04-25T03:30:19.807Z,99.99
2023-04-25T03:31:20.757Z,99.99
2023-04-25T03:32:21.927Z,99.99
2023-04-25T03:33:21.971Z,99.99
2023-04-25T03:34:22.892Z,99.99
2023-04-25T03:35:23.265Z,99.99
2023-04-25T03:36:23.956Z,99.99
2023-04-25T03:37:24.877Z,99.99
2023-04-25T03:38:26.101Z,99.99
2023-04-25T03:39:26.187Z,99.99
2023-04-25T03:40:27.098Z,99.99
2023-04-25T03:41:28.029Z,99.99
2023-04-25T03:42:28.761Z,99.99
2023-04-25T03:43:29.078Z,99.99
2023-04-25T03:44:29.188Z,99.99
2023-04-25T03:45:30.024Z,99.99
2023-04-25T03:46:30.428Z,99.99
2023-04-25T03:47:31.593Z,99.99
2023-04-25T03:48:31.437Z,99.99
2023-04-25T03:49:31.943Z,99.99
2023-04-25T03:50:33.013Z,99.99
2023-04-25T03:51:33.726Z,99.99
2023-04-25T03:52:34.642Z,99.99
2023-04-25T03:53:35.566Z,99.99
2023-04-25T03:54:36.058Z,99.99
2023-04-25T03:55:36.663Z,99.99
2023-04-25T03:56:37.659Z,99.99
2023-04-25T03:57:38.182Z,99.99
2023-04-25T03:58:38.476Z,99.99
2023-04-25T03:59:39.223Z,99.99
2023-04-25T04:00:39.952Z,99.99
2023-04-25T04:01:40.326Z,99.99
2023-04-25T04:02:43.253Z,99.99
2023-04-25T04:03:42.697Z,99.99
2023-04-25T04:04:43.352Z,99.99
2023-04-25T04:06:43.569Z,99.99
2023-04-25T04:07:43.972Z,99.99
2023-04-25T04:08:44.708Z,99.99
2023-04-25T04:09:45.401Z,99.99
2023-04-25T04:10:45.939Z,99.99
2023-04-25T04:11:46.757Z,99.64
2023-04-25T04:12:47.063Z,99.55
2023-04-25T04:13:47.888Z,99.45
2023-04-25T04:14:47.682Z,99.93
2023-04-25T04:15:48.132Z,99.99
2023-04-25T04:16:48.847Z,99.93
2023-04-25T04:17:49.442Z,99.93
2023-04-25T04:18:49.489Z,99.99
2023-04-25T04:19:50.013Z,99.99
2023-04-25T04:20:50.307Z,99.93
2023-04-25T04:21:51.008Z,99.99
2023-04-25T04:22:51.295Z,99.99
2023-04-25T04:23:52.451Z,99.99
2023-04-25T04:24:53.024Z,99.99
2023-04-25T04:25:53.800Z,99.99
2023-04-25T04:26:54.585Z,99.99
2023-04-25T04:27:55.281Z,99.99
2023-04-25T04:28:56.050Z,99.99
2023-04-25T04:29:56.753Z,99.99
2023-04-25T04:30:56.667Z,99.99
2023-04-25T04:31:57.940Z,99.99
2023-04-25T04:32:58.314Z,99.99
2023-04-25T04:33:58.623Z,99.99
2023-04-25T04:34:59.137Z,99.99
2023-04-25T04:35:59.753Z,99.99
2023-04-25T04:37:00.063Z,99.99
2023-04-25T04:38:00.413Z,99.99
2023-04-25T04:39:01.359Z,99.99
2023-04-25T04:40:01.853Z,99.99
2023-04-25T04:41:02.380Z,99.99
2023-04-25T04:42:03.290Z,99.99
2023-04-25T04:43:04.226Z,99.99
2023-04-25T04:44:06.147Z,99.99
2023-04-25T04:45:04.923Z,99.99
2023-04-25T04:46:05.753Z,99.99
2023-04-25T04:47:06.851Z,99.99
2023-04-25T04:48:07.698Z,99.99
2023-04-25T04:49:08.480Z,99.99
2023-04-25T04:50:09.440Z,99.99
2023-04-25T04:51:10.075Z,99.99
2023-04-25T04:52:10.577Z,99.99
2023-04-25T04:53:11.496Z,99.99
2023-04-25T04:54:11.685Z,99.99
2023-04-25T04:55:12.179Z,99.99
2023-04-25T04:56:12.579Z,99.99
2023-04-25T04:57:12.911Z,99.99
2023-04-25T04:58:13.207Z,99.99
2023-04-25T04:59:14.401Z,99.99
2023-04-25T05:00:14.791Z,99.99
2023-04-25T05:01:15.325Z,99.99
2023-04-25T05:02:16.104Z,99.99
2023-04-25T05:03:16.363Z,99.99
2023-04-25T05:04:17.059Z,99.99
2023-04-25T05:05:17.190Z,99.99
2023-04-25T05:06:17.428Z,99.99
2023-04-25T05:07:17.589Z,99.99
2023-04-25T05:08:18.530Z,99.99
2023-04-25T05:09:19.490Z,99.99
2023-04-25T05:10:19.799Z,99.99
2023-04-25T05:11:20.576Z,99.99
2023-04-25T05:12:21.328Z,99.99
2023-04-25T05:13:21.852Z,99.99
2023-04-25T05:14:22.368Z,99.99
2023-04-25T05:15:22.678Z,99.99
2023-04-25T05:16:23.332Z,99.99
2023-04-25T05:17:24.041Z,99.99
2023-04-25T05:18:27.611Z,99.99
2023-04-25T05:19:25.135Z,99.99
2023-04-25T05:20:25.830Z,99.99
2023-04-25T05:21:25.926Z,99.99
2023-04-25T05:22:26.418Z,99.99
2023-04-25T05:24:15.385Z,99.99
2023-04-25T05:25:16.300Z,99.99
2023-04-25T05:26:16.204Z,99.99
2023-04-25T05:27:16.697Z,99.99
2023-04-25T05:28:17.417Z,99.99
2023-04-25T05:29:17.492Z,99.99
2023-04-25T05:30:18.228Z,99.99
2023-04-25T05:31:18.716Z,99.99
2023-04-25T05:32:19.458Z,99.99
2023-04-25T05:33:19.414Z,99.99
2023-04-25T05:34:19.808Z,99.99
2023-04-25T05:35:20.389Z,99.99
2023-04-25T05:36:21.388Z,99.99
2023-04-25T05:37:22.307Z,99.99
2023-04-25T05:38:23.212Z,99.99
2023-04-25T05:39:23.877Z,99.99
2023-04-25T05:40:24.697Z,99.99
2023-04-25T05:41:25.394Z,99.99
2023-04-25T05:42:26.103Z,99.99
2023-04-25T05:43:27.044Z,99.99
2023-04-25T05:44:27.686Z,99.99
2023-04-25T05:45:28.184Z,99.99
2023-04-25T05:46:29.204Z,99.99
2023-04-25T05:47:29.126Z,99.99
2023-04-25T05:48:30.193Z,99.99
2023-04-25T05:49:30.087Z,99.99
2023-04-25T05:50:31.226Z,99.99
2023-04-25T05:51:31.953Z,99.99
2023-04-25T05:52:32.641Z,99.99
2023-04-25T05:53:33.554Z,99.99
2023-04-25T05:54:33.736Z,99.99
2023-04-25T05:55:34.534Z,99.99
2023-04-25T05:56:34.657Z,99.99
2023-04-25T05:57:35.412Z,99.99
2023-04-25T05:58:35.980Z,99.99
2023-04-25T05:59:36.707Z,99.99
2023-04-25T06:00:36.886Z,99.99
2023-04-25T06:01:37.618Z,99.99
2023-04-25T06:02:38.607Z,99.99
2023-04-25T06:03:40.019Z,99.99
2023-04-25T06:04:40.544Z,99.99
2023-04-25T06:05:40.816Z,99.99
2023-04-25T06:06:41.809Z,99.99
2023-04-25T06:07:42.311Z,99.99
2023-04-25T06:08:43.112Z,99.99
2023-04-25T06:09:44.050Z,99.99
2023-04-25T06:10:43.997Z,99.99
2023-04-25T06:11:44.719Z,99.99
2023-04-25T06:12:45.433Z,99.99
2023-04-25T06:13:46.392Z,99.99
2023-04-25T06:14:47.128Z,99.99
2023-04-25T06:15:47.672Z,99.99
2023-04-25T06:16:47.992Z,99.99
2023-04-25T06:17:48.548Z,99.99
2023-04-25T06:18:49.010Z,99.99
2023-04-25T06:19:50.108Z,99.99
2023-04-25T06:20:50.829Z,99.99
2023-04-25T06:21:51.778Z,99.99
2023-04-25T06:22:52.460Z,99.99
2023-04-25T06:23:53.476Z,99.99
2023-04-25T06:24:53.859Z,99.99
2023-04-25T06:25:54.332Z,99.99
2023-04-25T06:26:55.259Z,99.99
2023-04-25T06:27:55.749Z,99.99
2023-04-25T06:28:56.130Z,99.99
2023-04-25T06:29:56.626Z,99.99
2023-04-25T06:30:57.262Z,99.99
2023-04-25T06:31:58.188Z,99.98
2023-04-25T06:32:58.805Z,99.98
2023-04-25T06:33:59.771Z,98.83
2023-04-25T06:35:00.556Z,98.46
2023-04-25T06:36:00.848Z,98.36
2023-04-25T06:37:01.586Z,97.98
2023-04-25T06:38:02.301Z,98.27
2023-04-25T06:39:03.228Z,96.94
2023-04-25T06:40:03.719Z,95.22
2023-04-25T06:41:04.657Z,92.27
2023-04-25T06:42:05.155Z,90.08
2023-04-25T06:43:06.129Z,89.8
2023-04-25T06:44:06.903Z,90.56
2023-04-25T06:45:07.355Z,91.32
2023-04-25T06:46:08.102Z,91.37
2023-04-25T06:47:09.176Z,90.8
2023-04-25T06:48:09.741Z,90.61
2023-04-25T06:49:10.721Z,90.7
2023-04-25T06:50:11.424Z,88.65
2023-04-25T06:51:11.734Z,85.89
2023-04-25T06:52:12.490Z,86.18
2023-04-25T06:53:12.974Z,86.36
2023-04-25T06:54:14.094Z,86.08
2023-04-25T06:55:15.118Z,86.27
2023-04-25T06:56:15.322Z,86.46
2023-04-25T06:57:15.847Z,86.36
2023-04-25T06:58:16.739Z,85.99
2023-04-25T06:59:17.293Z,85.8
2023-04-25T07:00:18.281Z,86.27
2023-04-25T07:01:18.701Z,86.36
2023-04-25T07:02:18.709Z,86.65
2023-04-25T07:03:19.280Z,86.84
2023-04-25T07:04:20.657Z,86.55
2023-04-25T07:05:21.372Z,86.94
2023-04-25T07:06:21.448Z,87.23
2023-04-25T07:07:21.977Z,86.84
2023-04-25T07:08:22.509Z,86.65
2023-04-25T07:09:22.856Z,86.69
2023-04-25T07:10:23.839Z,86.41
2023-04-25T07:11:24.613Z,87.84
2023-04-25T07:12:25.539Z,87.27
2023-04-25T07:13:26.248Z,86.88
2023-04-25T07:14:26.822Z,86.22
2023-04-25T07:15:27.736Z,86.03
2023-04-25T07:16:28.751Z,86.12
2023-04-25T07:17:29.013Z,86.12
2023-04-25T07:18:28.898Z,86.03
2023-04-25T07:19:29.815Z,86.12
2023-04-25T07:20:30.669Z,86.22
2023-04-25T07:21:31.812Z,85.17
2023-04-25T07:22:32.377Z,85.36
2023-04-25T07:23:32.749Z,86.03
2023-04-25T07:24:33.748Z,86.55
2023-04-25T07:25:34.403Z,87.13
2023-04-25T07:26:34.944Z,87.03
2023-04-25T07:27:35.904Z,87.79
2023-04-25T07:28:35.882Z,87.89
2023-04-25T07:29:36.835Z,87.7
2023-04-25T07:30:36.928Z,87.89
2023-04-25T07:31:37.953Z,87.51
2023-04-25T07:32:38.959Z,87.51
2023-04-25T07:33:39.605Z,87.23
2023-04-25T07:34:39.954Z,86.84
2023-04-25T07:35:40.936Z,87.13
2023-04-25T07:36:41.671Z,87.03
2023-04-25T07:37:42.396Z,87.6
2023-04-25T07:38:42.534Z,87.98
2023-04-25T07:39:42.569Z,88.37
2023-04-25T07:40:43.550Z,87.98
2023-04-25T07:41:43.646Z,86.69
2023-04-25T07:42:44.532Z,86.46
2023-04-25T07:43:45.511Z,87.03
2023-04-25T07:44:46.237Z,87.17
2023-04-25T07:45:46.575Z,86.6
2023-04-25T07:46:47.373Z,84.92
2023-04-25T07:47:47.840Z,84.64
2023-04-25T07:48:48.701Z,83.5
2023-04-25T07:49:49.029Z,82.78
2023-04-25T07:50:49.733Z,82.2
2023-04-25T07:51:50.477Z,80.01
2023-04-25T07:52:51.207Z,78.62
2023-04-25T07:53:51.161Z,78.94
2023-04-25T07:54:51.792Z,77.42
2023-04-25T07:55:52.276Z,75.42
2023-04-25T07:56:58.684Z,75.07
2023-04-25T07:57:53.580Z,74.88
2023-04-25T07:58:53.921Z,73.73
2023-04-25T07:59:54.435Z,73.58
2023-04-25T08:00:55.216Z,72.24
2023-04-25T08:01:55.901Z,72.3
2023-04-25T08:02:56.733Z,71.53
2023-04-25T08:03:57.600Z,71.06
2023-04-25T08:04:57.739Z,72.17
2023-04-25T08:05:58.396Z,71.53
2023-04-25T08:06:58.986Z,71.34
2023-04-25T08:07:59.965Z,70.58
2023-04-25T08:09:00.684Z,71.15
2023-04-25T08:10:01.192Z,70.2
2023-04-25T08:11:02.168Z,70.48
2023-04-25T08:12:02.954Z,69.66
2023-04-25T08:13:03.691Z,67.36
2023-04-25T08:14:04.440Z,65.04
2023-04-25T08:15:05.413Z,63.8
2023-04-25T08:16:06.309Z,63.99
2023-04-25T08:17:06.438Z,63.45
2023-04-25T08:18:07.568Z,63.26
2023-04-25T08:19:08.415Z,61.44
2023-04-25T08:20:09.159Z,61.72
2023-04-25T08:21:10.443Z,61.82
2023-04-25T08:22:11.149Z,62.01
2023-04-25T08:23:11.889Z,62.4
2023-04-25T08:24:12.403Z,62.04
2023-04-25T08:25:13.109Z,60.87
2023-04-25T08:26:13.733Z,61.38
2023-04-25T08:27:13.639Z,61.66
2023-04-25T08:28:15.240Z,61.95
2023-04-25T08:29:14.177Z,61.12
2023-04-25T08:30:14.943Z,58.76
2023-04-25T08:31:15.976Z,60.1
2023-04-25T08:32:16.158Z,58.69
2023-04-25T08:33:17.717Z,57.54
2023-04-25T08:34:17.673Z,57.38
2023-04-25T08:35:18.216Z,57.5
2023-04-25T08:36:31.359Z,57.06
2023-04-25T08:37:18.753Z,55.04
2023-04-25T08:38:19.492Z,53.99
2023-04-25T08:39:20.486Z,52.62
2023-04-25T08:40:21.319Z,51.92
2023-04-25T08:41:22.245Z,53.62
2023-04-25T08:42:23.082Z,56.17
2023-04-25T08:43:24.093Z,57.39
2023-04-25T08:44:24.797Z,58.22
2023-04-25T08:45:25.536Z,59.27
2023-04-25T08:46:26.155Z,60.99
2023-04-25T08:47:27.469Z,61.92
2023-04-25T08:48:27.882Z,62.11
2023-04-25T08:49:28.618Z,63.23
2023-04-25T08:50:28.991Z,63.6
2023-04-25T08:51:29.475Z,64.43
2023-04-25T08:52:30.167Z,64.91
2023-04-25T08:53:31.659Z,65.87
2023-04-25T08:54:41.831Z,66.12
2023-04-25T08:55:32.420Z,67.36
2023-04-25T08:56:34.489Z,68.98
2023-04-25T08:57:33.631Z,72
2023-04-25T08:58:33.523Z,72.57
2023-04-25T08:59:35.598Z,73.91
2023-04-25T09:00:35.648Z,75.72
2023-04-25T09:01:35.788Z,76.39
2023-04-25T09:02:36.973Z,76.01
2023-04-25T09:03:37.409Z,75.43
2023-04-25T09:04:37.642Z,76.64
2023-04-25T09:05:39.057Z,76.77
2023-04-25T09:07:38.888Z,78.2
2023-04-25T09:08:39.658Z,76.67
2023-04-25T09:09:40.618Z,76.57
2023-04-25T09:10:41.218Z,76.39
2023-04-25T09:11:41.642Z,75.81
2023-04-25T09:12:41.887Z,75.85
2023-04-25T09:13:42.019Z,75.76
2023-04-25T09:14:42.255Z,76.04
2023-04-25T09:15:43.241Z,76.42
2023-04-25T09:16:45.273Z,75.91
2023-04-25T09:17:45.177Z,74.86
2023-04-25T09:18:53.175Z,74.77
2023-04-25T09:19:47.996Z,73.39
2023-04-25T09:21:09.991Z,74.54
2023-04-25T09:21:48.827Z,75.78
2023-04-25T09:22:49.403Z,76.92
2023-04-25T09:23:50.524Z,77.4
2023-04-25T09:24:50.707Z,77.87
2023-04-25T09:25:51.449Z,74.98
2023-04-25T09:26:51.785Z,73.83
2023-04-25T09:27:52.163Z,71.83
2023-04-25T09:28:52.388Z,72.31
2023-04-25T09:29:52.333Z,70.44
2023-04-25T09:30:52.321Z,70.25
2023-04-25T09:31:53.478Z,72.16
2023-04-25T09:32:53.461Z,72.34
2023-04-25T09:33:56.537Z,72.34
2023-04-25T09:34:55.149Z,71.48
2023-04-25T09:35:55.590Z,72.06
2023-04-25T09:36:56.642Z,72.48
2023-04-25T09:37:57.435Z,72.48
2023-04-25T09:38:58.464Z,71.91
2023-04-25T09:39:58.561Z,72.8
2023-04-25T09:40:58.606Z,71.66
2023-04-25T09:41:59.747Z,71.37
2023-04-25T09:42:59.876Z,71.94
2023-04-25T09:44:01.097Z,72.8
2023-04-25T09:45:01.273Z,72.8
2023-04-25T09:46:01.645Z,72.71
2023-04-25T09:47:01.578Z,73.08
2023-04-25T09:48:02.456Z,72.8
2023-04-25T09:49:02.598Z,71.75
2023-04-25T09:50:03.440Z,70.42
2023-04-25T09:51:04.127Z,69.62
2023-04-25T09:52:04.998Z,69.14
2023-04-25T09:53:05.073Z,69.71
2023-04-25T09:54:05.829Z,70.76
2023-04-25T09:55:06.778Z,71.52
2023-04-25T09:56:07.716Z,71.52
2023-04-25T09:58:08.502Z,70.47
2023-04-25T09:59:09.315Z,68.76
2023-04-25T10:00:10.275Z,67.9
2023-04-25T10:01:11.024Z,68.28
2023-04-25T10:02:11.142Z,69.52
2023-04-25T10:03:12.081Z,69.71
2023-04-25T10:04:12.978Z,69.33
2023-04-25T10:05:13.356Z,69.56
2023-04-25T10:06:14.154Z,69.65
2023-04-25T10:07:15.126Z,69.27
2023-04-25T10:08:15.295Z,67.93
2023-04-25T10:09:16.374Z,67.36
2023-04-25T10:10:16.402Z,67.21
2023-04-25T10:11:17.075Z,66.92
2023-04-25T10:12:17.236Z,67.21
2023-04-25T10:13:17.180Z,67.24
2023-04-25T10:14:17.696Z,67.05
2023-04-25T10:15:18.602Z,66.76
2023-04-25T10:16:19.886Z,66.85
2023-04-25T10:17:19.910Z,67.58
2023-04-25T10:18:20.588Z,68.54
2023-04-25T10:19:21.781Z,68.54
2023-04-25T10:20:22.447Z,68.54
2023-04-25T10:21:23.169Z,69.65
2023-04-25T10:22:24.159Z,71.08
2023-04-25T10:23:24.079Z,71.66
2023-04-25T10:24:25.393Z,73.37
2023-04-25T10:25:26.414Z,73.91
2023-04-25T10:26:27.399Z,74.86
2023-04-25T10:27:27.560Z,74.96
2023-04-25T10:28:28.475Z,75.34
2023-04-25T10:29:28.613Z,75.24
2023-04-25T10:30:29.333Z,74.86
2023-04-25T10:31:30.368Z,74.1
2023-04-25T10:32:31.292Z,74.57
2023-04-25T10:33:30.857Z,74.54
2023-04-25T10:34:31.641Z,74.35
2023-04-25T10:35:32.561Z,76.35
2023-04-25T10:36:33.061Z,78.16
2023-04-25T10:37:33.774Z,79.97
2023-04-25T10:38:34.309Z,81.46
2023-04-25T10:39:34.868Z,83.65
2023-04-25T10:40:35.178Z,84.98
2023-04-25T10:41:35.945Z,86.6
2023-04-25T10:42:36.628Z,87.46
2023-04-25T10:43:37.835Z,88.22
2023-04-25T10:44:37.848Z,87.93
2023-04-25T10:45:38.778Z,88.03
2023-04-25T10:46:39.055Z,87.17
2023-04-25T10:48:39.384Z,87.07
2023-04-25T10:49:40.313Z,87.36
2023-04-25T10:50:41.215Z,86.98
2023-04-25T10:52:00.338Z,87.27
2023-04-25T10:52:42.120Z,87.7
2023-04-25T10:53:42.629Z,89.32
2023-04-25T10:54:43.471Z,88.98
2023-04-25T10:55:43.831Z,89.07
2023-04-25T10:56:44.544Z,89.41
2023-04-25T10:57:45.566Z,89.79
2023-04-25T10:58:46.359Z,90.65
2023-04-25T10:59:46.439Z,91.41
2023-04-25T11:00:58.619Z,91.89
2023-04-25T11:01:48.281Z,93.32
2023-04-25T11:02:48.576Z,94.65
2023-04-25T11:03:48.892Z,95.41
2023-04-25T11:04:48.930Z,94.74
2023-04-25T11:06:00.398Z,95.41
2023-04-25T11:06:49.256Z,97.22
2023-04-25T11:08:00.474Z,98.03
2023-04-25T11:08:50.601Z,98.84
2023-04-25T11:09:50.998Z,99.27
2023-04-25T11:10:52.179Z,99.99
2023-04-25T11:11:52.231Z,99.99
2023-04-25T11:12:53.018Z,99.99
2023-04-25T11:13:53.380Z,99.99
2023-04-25T11:14:54.135Z,99.99
2023-04-25T11:16:07.565Z,99.99
2023-04-25T11:16:56.567Z,99.99
2023-04-25T11:17:56.889Z,99.99
2023-04-25T11:18:57.909Z,99.99
2023-04-25T11:19:58.794Z,99.99
2023-04-25T11:20:59.336Z,99.99
2023-04-25T11:22:00.253Z,99.99
2023-04-25T11:23:00.524Z,99.99
2023-04-25T11:24:00.895Z,99.99
2023-04-25T11:25:01.975Z,99.99
2023-04-25T11:26:02.601Z,99.99
2023-04-25T11:27:03.548Z,99.99
2023-04-25T11:28:03.911Z,99.99
2023-04-25T11:29:04.930Z,99.99
2023-04-25T11:30:05.756Z,99.99
2023-04-25T11:31:06.498Z,99.99
2023-04-25T11:32:06.762Z,99.13
2023-04-25T11:33:07.806Z,97.89
2023-04-25T11:34:07.946Z,98.74
2023-04-25T11:35:08.442Z,99.98
2023-04-25T11:36:09.236Z,98.22
2023-04-25T11:37:09.792Z,99.27
2023-04-25T11:39:11.690Z,98.56
2023-04-25T11:40:11.318Z,97.22
2023-04-25T11:41:11.356Z,95.56
2023-04-25T11:42:19.584Z,93.84
2023-04-25T11:43:12.142Z,92.32
2023-04-25T11:44:12.878Z,90.88
2023-04-25T11:45:13.872Z,91.12
2023-04-25T11:46:14.875Z,89.31
2023-04-25T11:47:14.978Z,87.49
2023-04-25T11:48:15.897Z,86.73
2023-04-25T11:49:16.731Z,86.58
2023-04-25T11:50:17.650Z,86.58
2023-04-25T11:51:18.186Z,85.63
2023-04-25T11:52:18.889Z,84.48
2023-04-25T11:53:19.607Z,83.43
2023-04-25T11:54:20.325Z,82.9
2023-04-25T11:55:20.923Z,81.66
2023-04-25T11:56:21.138Z,83.18
2023-04-25T11:57:21.033Z,82.9
2023-04-25T11:58:21.968Z,83.09
2023-04-25T11:59:22.993Z,83
2023-04-25T12:00:24.557Z,83.38
2023-04-25T12:01:24.328Z,84.66
2023-04-25T12:02:25.490Z,83.28
2023-04-25T12:03:26.460Z,84.09
2023-04-25T12:04:26.485Z,82.08
2023-04-25T12:05:38.218Z,80.84
2023-04-25T12:06:27.692Z,80.9
2023-04-25T12:07:27.327Z,80.99
2023-04-25T12:08:27.725Z,80.8
2023-04-25T12:09:28.524Z,81.18
2023-04-25T12:10:29.600Z,81.85
2023-04-25T12:11:29.663Z,82.52
2023-04-25T12:12:30.589Z,82.9
2023-04-25T12:13:31.120Z,82.52
2023-04-25T12:14:31.703Z,83.09
2023-04-25T12:15:32.488Z,83.09
2023-04-25T12:16:33.118Z,84
2023-04-25T12:17:33.427Z,86.2
2023-04-25T12:18:34.589Z,86.87
2023-04-25T12:19:34.992Z,87.73
2023-04-25T12:20:35.769Z,89.35
2023-04-25T12:21:38.953Z,90.02
2023-04-25T12:22:37.248Z,90.4
2023-04-25T12:23:38.013Z,90.93
2023-04-25T12:24:39.859Z,91.88
2023-04-25T12:25:40.085Z,94.17
2023-04-25T12:26:40.500Z,95.65
2023-04-25T12:27:41.307Z,96.32
2023-04-25T12:28:41.879Z,97.94
2023-04-25T12:29:55.094Z,97.85
2023-04-25T12:30:45.788Z,99.32
2023-04-25T12:31:44.755Z,99.99
2023-04-25T12:32:45.288Z,99.99
2023-04-25T12:33:45.367Z,99.99
2023-04-25T12:34:45.666Z,99.99
2023-04-25T12:35:48.615Z,99.99
2023-04-25T12:36:47.370Z,99.99
2023-04-25T12:37:48.101Z,99.99
2023-04-25T12:38:49.306Z,99.99
2023-04-25T12:39:49.182Z,99.99
2023-04-25T12:40:50.062Z,99.99
2023-04-25T12:41:50.340Z,99.99
2023-04-25T12:42:51.087Z,99.99
2023-04-25T12:43:51.784Z,99.99
2023-04-25T12:44:52.880Z,99.99
2023-04-25T12:45:54.042Z,99.99
2023-04-25T12:46:55.130Z,99.99
2023-04-25T12:47:55.816Z,99.99
2023-04-25T12:48:58.710Z,99.99
2023-04-25T12:49:56.716Z,99.99
2023-04-25T12:50:57.157Z,99.99
2023-04-25T12:51:57.921Z,99.99
2023-04-25T12:52:58.446Z,99.99
2023-04-25T12:53:59.272Z,99.99
2023-04-25T12:54:59.557Z,99.99
2023-04-25T12:56:01.137Z,99.99
2023-04-25T12:57:00.942Z,99.99
2023-04-25T12:58:01.439Z,99.99
2023-04-25T12:59:02.527Z,99.99
2023-04-25T13:00:03.472Z,99.99
2023-04-25T13:01:04.558Z,99.99
2023-04-25T13:02:05.386Z,99.99
2023-04-25T13:03:06.200Z,99.99
2023-04-25T13:04:06.298Z,99.99
2023-04-25T13:05:06.980Z,99.99
2023-04-25T13:06:07.966Z,99.99
2023-04-25T13:07:08.462Z,99.99
2023-04-25T13:08:09.417Z,99.99
2023-04-25T13:10:10.225Z,99.99
2023-04-25T13:11:10.801Z,99.99
2023-04-25T13:12:11.299Z,99.99